KTCM/TCM METAR and TAF weather

Enter ICAO airport designator
Station Type Date Time Source
KTCM METAR 2019/02/16 17:37 UTC NOAA

KTCM 161737Z 17003KT 5SM BR SCT004 OVC011 03/03 A2984 RMK AO2A VIS 1 3/8 RWY34 CIG 007V011 CIG 003 RWY34 SLP111 $


Station Type Date Time Source
KTCM Decoded METAR 2019/02/16 17:37 UTC NOAA

Tacoma / McChord Air Force Base, WA, United States (KTCM) 47-09N 122-29W 87M
Feb 16, 2019 - 12:37 PM EST / 2019.02.16 1737 UTC
Wind: from the S (170 degrees) at 3 MPH (3 KT):0
Visibility: 5 mile(s):0
Sky conditions: overcast
Weather: mist
Temperature: 37 F (3 C)
Dew Point: 37 F (3 C)
Relative Humidity: 100%
Pressure (altimeter): 29.84 in. Hg (1010 hPa)
ob: KTCM 161737Z 17003KT 5SM BR SCT004 OVC011 03/03 A2984 RMK AO2A VIS 1 3/8 RWY34 CIG 007V011 CIG 003 RWY34 SLP111
cycle: 17

Station Type Date Time Source
KTCM TAF 2019/02/16 16:18 UTC NOAA

TAF TAF
AMD KTCM 161614Z 1616/1719 VRB06KT 6000 -RA BR BKN005 OVC015 620155 QNH2974INS
TEMPO 1616/1618 9999 VCSH FEW005 BKN015
BECMG 1617/1618 VRB06KT 9999 VCSH BKN015 610155 QNH2977INS
BECMG 1619/1620 VRB06KT 9999 NSW FEW010 BKN020 610208 QNH2980INS
BECMG 1704/1705 VRB06KT 4800 BR BKN020 620208 QNH2984INS
BECMG 1712/1713 VRB06KT 9999 NSW BKN025 620405 QNH3003INS TX07/1623Z TN01/1616Z


Example: see airport list